createdAt,value
2022-12-14T00:01:08.546Z,17.30
2022-12-14T00:06:13.154Z,16.43
2022-12-14T00:11:17.572Z,20.33
2022-12-14T00:16:21.185Z,15.20
2022-12-14T00:21:24.724Z,17.30
2022-12-14T00:26:30.959Z,17.43
2022-12-14T00:31:34.645Z,14.40
2022-12-14T00:36:37.946Z,18.93
2022-12-14T00:41:42.343Z,15.30
2022-12-14T00:46:45.250Z,17.77
2022-12-14T00:51:48.022Z,15.13
2022-12-14T00:56:52.200Z,13.63
2022-12-14T01:01:55.036Z,9.30
2022-12-14T01:06:58.002Z,20.17
2022-12-14T01:12:02.177Z,22.30
2022-12-14T01:17:05.113Z,13.83
2022-12-14T01:22:08.037Z,21.30
2022-12-14T01:27:12.628Z,18.20
2022-12-14T01:32:15.502Z,15.37
2022-12-14T01:37:18.307Z,20.73
2022-12-14T01:42:22.540Z,15.63
2022-12-14T01:47:29.648Z,17.33
2022-12-14T01:52:36.532Z,16.60
2022-12-14T01:57:43.001Z,16.53
2022-12-14T02:02:50.589Z,22.70
2022-12-14T02:07:55.937Z,17.70
2022-12-14T02:13:04.474Z,15.73
2022-12-14T02:18:10.736Z,18.10
2022-12-14T02:23:42.151Z,21.27
2022-12-14T02:29:16.453Z,23.27
2022-12-14T02:34:24.983Z,20.83
2022-12-14T02:39:34.866Z,17.60
2022-12-14T02:44:43.004Z,16.23
2022-12-14T02:49:53.753Z,16.97
2022-12-14T02:54:59.927Z,20.40
2022-12-14T03:00:06.400Z,20.03
2022-12-14T03:05:10.177Z,16.10
2022-12-14T03:10:20.366Z,15.20
2022-12-14T03:15:26.081Z,20.57
2022-12-14T03:20:30.363Z,15.00
2022-12-14T03:25:36.824Z,15.00
2022-12-14T03:31:00.566Z,24.57
2022-12-14T03:36:09.184Z,18.27
2022-12-14T03:41:18.274Z,14.43
2022-12-14T03:46:32.987Z,22.17
2022-12-14T03:51:41.772Z,17.63
2022-12-14T03:56:52.951Z,15.27
2022-12-14T04:02:02.876Z,14.13
2022-12-14T04:07:13.097Z,15.47
2022-12-14T04:12:34.906Z,17.67
2022-12-14T04:17:57.449Z,14.32
2022-12-14T04:23:04.627Z,17.40
2022-12-14T04:28:32.122Z,15.50
2022-12-14T04:33:48.980Z,17.43
2022-12-14T04:38:55.745Z,13.90
2022-12-14T04:44:01.895Z,18.37
2022-12-14T04:49:19.405Z,15.50
2022-12-14T04:54:25.341Z,14.93
2022-12-14T04:59:28.496Z,16.00
2022-12-14T05:04:54.840Z,16.20
2022-12-14T05:10:00.730Z,12.73
2022-12-14T05:15:06.823Z,11.97
2022-12-14T05:20:16.529Z,19.30
2022-12-14T05:25:19.363Z,12.40
2022-12-14T05:30:22.295Z,11.73
2022-12-14T05:35:26.674Z,10.07
2022-12-14T05:40:29.425Z,14.67
2022-12-14T05:45:32.282Z,12.93
2022-12-14T05:50:36.637Z,12.33
2022-12-14T05:55:39.528Z,13.67
2022-12-14T06:00:42.480Z,10.37
2022-12-14T06:05:47.397Z,15.20
2022-12-14T06:10:51.106Z,12.90
2022-12-14T06:15:54.019Z,15.27
2022-12-14T06:20:58.802Z,15.00
2022-12-14T06:26:01.755Z,14.10
2022-12-14T06:31:05.872Z,11.17
2022-12-14T06:36:17.595Z,14.27
2022-12-14T06:41:21.258Z,14.77
2022-12-14T06:46:25.196Z,15.27
2022-12-14T06:51:29.461Z,13.07
2022-12-14T06:56:32.261Z,15.43
2022-12-14T07:01:35.675Z,14.40
2022-12-14T07:06:41.599Z,15.70
2022-12-14T07:11:44.449Z,13.70
2022-12-14T07:16:48.597Z,16.37
2022-12-14T07:21:53.296Z,12.70
2022-12-14T07:26:56.662Z,17.50
2022-12-14T07:31:59.883Z,14.50
2022-12-14T07:37:04.285Z,13.50
2022-12-14T07:42:07.211Z,17.93
2022-12-14T07:47:13.829Z,9.47
2022-12-14T07:52:20.733Z,13.30
2022-12-14T07:57:23.539Z,6.40
2022-12-14T08:02:26.501Z,11.03
2022-12-14T08:07:31.564Z,16.17
2022-12-14T08:12:34.436Z,11.00
2022-12-14T08:17:37.276Z,11.17
2022-12-14T08:22:41.618Z,15.67
2022-12-14T08:27:44.486Z,15.17
2022-12-14T08:32:47.378Z,15.73
2022-12-14T08:37:54.635Z,13.97
2022-12-14T08:42:57.397Z,16.07
2022-12-14T08:48:01.627Z,18.00
2022-12-14T08:53:05.913Z,18.37
2022-12-14T08:58:08.779Z,12.43
2022-12-14T09:03:12.347Z,15.47
2022-12-14T09:08:16.576Z,16.73
2022-12-14T09:13:19.372Z,16.83
2022-12-14T09:18:22.164Z,17.93
2022-12-14T09:23:28.788Z,28.73
2022-12-14T09:28:32.558Z,13.60
2022-12-14T09:33:58.251Z,22.93
2022-12-14T09:39:02.833Z,20.13
2022-12-14T09:44:17.733Z,19.00
2022-12-14T09:49:27.354Z,22.77
2022-12-14T09:54:34.166Z,23.43
2022-12-14T09:59:37.061Z,20.90
2022-12-14T10:04:48.010Z,25.53
2022-12-14T10:09:58.099Z,18.93
2022-12-14T10:15:08.888Z,20.67
2022-12-14T10:20:17.951Z,22.23
2022-12-14T10:25:25.414Z,24.80
2022-12-14T10:30:28.621Z,22.77
2022-12-14T10:35:34.995Z,23.67
2022-12-14T10:40:43.632Z,27.67
2022-12-14T10:45:58.022Z,21.57
2022-12-14T10:51:03.293Z,28.83
2022-12-14T10:56:12.706Z,25.40
2022-12-14T11:01:16.650Z,22.07
2022-12-14T11:06:20.834Z,30.33
2022-12-14T11:11:26.308Z,24.97
2022-12-14T11:16:37.375Z,22.90
2022-12-14T11:21:40.500Z,21.57
2022-12-14T11:26:45.013Z,20.97
2022-12-14T11:31:49.348Z,23.57
2022-12-14T11:36:52.324Z,22.37
2022-12-14T11:42:03.788Z,20.60
2022-12-14T11:47:08.684Z,16.70
2022-12-14T11:52:13.005Z,21.60
2022-12-14T11:57:24.061Z,25.13
2022-12-14T12:02:30.421Z,22.83
2022-12-14T12:07:35.182Z,14.80
2022-12-14T12:12:39.948Z,22.67
2022-12-14T12:17:44.477Z,16.50
2022-12-14T12:22:50.549Z,18.77
2022-12-14T12:28:00.830Z,17.20
2022-12-14T12:33:11.247Z,15.37
2022-12-14T12:38:19.613Z,20.47
2022-12-14T12:43:27.783Z,11.63
2022-12-14T12:48:34.032Z,18.73
2022-12-14T12:53:41.033Z,13.97
2022-12-14T12:58:52.315Z,12.73
2022-12-14T13:03:57.850Z,11.70
2022-12-14T13:09:03.342Z,10.93
2022-12-14T13:14:17.356Z,12.37
2022-12-14T13:19:49.638Z,9.07
2022-12-14T13:24:51.882Z,9.83
2022-12-14T13:30:12.294Z,13.40
2022-12-14T13:35:37.923Z,9.83
2022-12-14T13:40:58.582Z,9.10
2022-12-14T13:46:08.486Z,11.90
2022-12-14T13:51:23.905Z,13.07
2022-12-14T13:56:33.317Z,9.30
2022-12-14T14:01:59.683Z,14.47
2022-12-14T14:07:37.658Z,12.47
2022-12-14T14:12:43.840Z,12.63
2022-12-14T14:17:49.323Z,15.27
2022-12-14T14:23:25.671Z,14.10
2022-12-14T14:28:30.581Z,12.43
2022-12-14T14:33:48.096Z,13.07
2022-12-14T14:38:51.980Z,12.23
2022-12-14T14:43:56.989Z,12.10
2022-12-14T14:49:01.458Z,13.50
2022-12-14T14:59:55.801Z,19.97
2022-12-14T15:05:32.866Z,11.23
2022-12-14T15:10:29.167Z,17.90
2022-12-14T15:15:37.234Z,14.33
2022-12-14T15:20:41.775Z,13.53
2022-12-14T15:25:44.656Z,8.90
2022-12-14T15:30:48.980Z,15.23
2022-12-14T15:35:53.197Z,17.50
2022-12-14T15:40:57.831Z,15.10
2022-12-14T15:46:05.027Z,14.00
2022-12-14T15:51:13.258Z,14.70
2022-12-14T15:56:20.234Z,14.63
2022-12-14T16:01:24.963Z,8.43
2022-12-14T16:06:32.834Z,13.13
2022-12-14T16:11:38.523Z,12.73
2022-12-14T16:16:41.665Z,16.30
2022-12-14T16:21:49.672Z,9.67
2022-12-14T16:26:57.878Z,10.20
2022-12-14T16:32:02.047Z,14.80
2022-12-14T16:42:33.058Z,12.77
2022-12-14T16:48:02.909Z,19.77
2022-12-14T16:53:16.652Z,17.60
2022-12-14T16:58:19.555Z,11.60
2022-12-14T17:03:24.472Z,17.30
2022-12-14T17:08:28.935Z,23.80
2022-12-14T17:13:31.960Z,16.33
2022-12-14T17:18:38.170Z,12.83
2022-12-14T17:23:44.303Z,12.07
2022-12-14T17:28:47.217Z,11.37
2022-12-14T17:33:51.097Z,20.23
2022-12-14T17:38:55.230Z,12.77
2022-12-14T17:43:58.379Z,15.53
2022-12-14T17:49:06.145Z,33.13
2022-12-14T17:54:15.770Z,25.23
2022-12-14T17:59:18.647Z,17.83
2022-12-14T18:04:21.409Z,33.63
2022-12-14T18:09:25.560Z,12.03
2022-12-14T18:14:28.395Z,15.83
2022-12-14T18:19:31.201Z,14.70
2022-12-14T18:24:35.500Z,20.90
2022-12-14T18:29:38.917Z,15.30
2022-12-14T18:34:41.777Z,12.53
2022-12-14T18:39:46.250Z,18.10
2022-12-14T18:44:52.425Z,18.83
2022-12-14T18:49:56.405Z,11.47
2022-12-14T18:55:00.634Z,15.17
2022-12-14T19:00:04.627Z,10.10
2022-12-14T19:05:08.385Z,9.07
2022-12-14T19:10:17.168Z,19.90
2022-12-14T19:15:23.186Z,28.30
2022-12-14T19:20:26.974Z,24.90
2022-12-14T19:25:31.574Z,15.60
2022-12-14T19:30:34.895Z,10.90
2022-12-14T19:35:40.654Z,9.27
2022-12-14T19:40:46.507Z,16.50
2022-12-14T19:45:49.559Z,16.33
2022-12-14T19:50:52.567Z,9.50
2022-12-14T19:55:57.929Z,8.37
2022-12-14T20:01:00.836Z,14.23
2022-12-14T20:06:05.100Z,11.07
2022-12-14T20:11:10.682Z,13.67
2022-12-14T20:16:16.734Z,11.57
2022-12-14T20:21:22.429Z,12.80
2022-12-14T20:26:27.014Z,8.23
2022-12-14T20:31:29.858Z,11.03
2022-12-14T20:36:32.849Z,12.87
2022-12-14T20:41:37.212Z,8.17
2022-12-14T20:46:42.215Z,8.67
2022-12-14T20:51:46.115Z,7.73
2022-12-14T20:56:50.515Z,10.97
2022-12-14T21:01:56.258Z,8.40
2022-12-14T21:06:59.649Z,15.73
2022-12-14T21:12:22.063Z,10.90
2022-12-14T21:17:26.590Z,10.40
2022-12-14T21:22:30.436Z,7.93
2022-12-14T21:27:38.960Z,10.53
2022-12-14T21:32:41.855Z,9.33
2022-12-14T21:37:44.793Z,4.43
2022-12-14T21:42:51.643Z,5.23
2022-12-14T21:47:54.523Z,10.23
2022-12-14T21:52:57.645Z,4.77
2022-12-14T21:58:26.907Z,7.37
2022-12-14T22:03:30.470Z,15.47
2022-12-14T22:08:33.851Z,3.67
2022-12-14T22:13:38.096Z,4.57
2022-12-14T22:18:41.130Z,1.90
2022-12-14T22:23:44.393Z,3.23
2022-12-14T22:28:50.687Z,2.17
2022-12-14T22:33:55.160Z,4.03
2022-12-14T22:38:58.426Z,5.37
2022-12-14T22:44:02.678Z,3.67
2022-12-14T22:49:05.866Z,5.70
2022-12-14T22:54:08.978Z,3.00
2022-12-14T22:59:15.874Z,2.97
2022-12-14T23:04:19.048Z,3.60
2022-12-14T23:09:39.554Z,10.40
2022-12-14T23:15:01.374Z,4.33
2022-12-14T23:20:22.726Z,3.60
2022-12-14T23:25:43.312Z,2.00
2022-12-14T23:31:05.387Z,2.60
2022-12-14T23:36:26.823Z,7.17
2022-12-14T23:41:48.625Z,3.80
2022-12-14T23:47:11.957Z,5.03
2022-12-14T23:52:32.467Z,2.83
2022-12-14T23:57:53.329Z,4.07
